sensor_id;sensor_type;location;lat;lon;timestamp;pressure;altitude;pressure_sealevel;temperature;humidity
21102;BME280;10709;49.006;12.100;2023-02-19T00:01:28;48918.44;;;-146.00;100.00
21102;BME280;10709;49.006;12.100;2023-02-19T00:04:17;48914.50;;;-146.00;100.00
21102;BME280;10709;49.006;12.100;2023-02-19T00:06:45;48910.59;;;-146.00;100.00
21102;BME280;10709;49.006;12.100;2023-02-19T00:09:14;48906.69;;;-146.00;100.00
21102;BME280;10709;49.006;12.100;2023-02-19T00:11:41;48906.69;;;-146.00;100.00
21102;BME280;10709;49.006;12.100;2023-02-19T00:14:10;48906.69;;;-146.00;100.00
21102;BME280;10709;49.006;12.100;2023-02-19T00:16:39;48908.63;;;-146.00;100.00
21102;BME280;10709;49.006;12.100;2023-02-19T00:19:09;48887.09;;;-146.00;100.00
21102;BME280;10709;49.006;12.100;2023-02-19T00:21:37;48863.56;;;-146.00;100.00
21102;BME280;10709;49.006;12.100;2023-02-19T00:24:06;48859.66;;;-146.00;100.00
21102;BME280;10709;49.006;12.100;2023-02-19T00:26:33;48855.75;;;-146.00;100.00
21102;BME280;10709;49.006;12.100;2023-02-19T00:29:00;48849.88;;;-146.00;100.00
21102;BME280;10709;49.006;12.100;2023-02-19T00:31:29;48847.91;;;-146.00;100.00
21102;BME280;10709;49.006;12.100;2023-02-19T00:34:01;48847.91;;;-146.00;100.00
21102;BME280;10709;49.006;12.100;2023-02-19T00:36:28;48847.91;;;-146.00;100.00
21102;BME280;10709;49.006;12.100;2023-02-19T00:38:55;48847.91;;;-146.00;100.00
21102;BME280;10709;49.006;12.100;2023-02-19T00:41:25;48844.00;;;-146.00;100.00
21102;BME280;10709;49.006;12.100;2023-02-19T00:48:53;48844.00;;;-146.00;100.00
21102;BME280;10709;49.006;12.100;2023-02-19T00:51:21;48844.00;;;-146.00;100.00
21102;BME280;10709;49.006;12.100;2023-02-19T00:53:49;48844.00;;;-146.00;100.00
21102;BME280;10709;49.006;12.100;2023-02-19T00:56:15;48840.06;;;-146.00;100.00
21102;BME280;10709;49.006;12.100;2023-02-19T00:58:42;48840.06;;;-146.00;100.00
21102;BME280;10709;49.006;12.100;2023-02-19T01:01:10;48840.06;;;-146.00;100.00
21102;BME280;10709;49.006;12.100;2023-02-19T01:03:38;48842.03;;;-146.00;100.00
21102;BME280;10709;49.006;12.100;2023-02-19T01:06:06;48847.91;;;-146.00;100.00
21102;BME280;10709;49.006;12.100;2023-02-19T01:08:33;48845.94;;;-146.00;100.00
21102;BME280;10709;49.006;12.100;2023-02-19T01:11:00;48844.00;;;-146.00;100.00
21102;BME280;10709;49.006;12.100;2023-02-19T01:13:27;48840.06;;;-146.00;100.00
21102;BME280;10709;49.006;12.100;2023-02-19T01:16:21;48844.00;;;-146.00;100.00
21102;BME280;10709;49.006;12.100;2023-02-19T01:18:50;48842.03;;;-146.00;100.00
21102;BME280;10709;49.006;12.100;2023-02-19T01:21:23;48844.00;;;-146.00;100.00
21102;BME280;10709;49.006;12.100;2023-02-19T01:23:50;48838.09;;;-146.00;100.00
21102;BME280;10709;49.006;12.100;2023-02-19T01:26:20;48842.03;;;-146.00;100.00
21102;BME280;10709;49.006;12.100;2023-02-19T01:28:47;48842.03;;;-146.00;100.00
21102;BME280;10709;49.006;12.100;2023-02-19T01:31:19;48844.00;;;-146.00;100.00
21102;BME280;10709;49.006;12.100;2023-02-19T01:33:49;48842.03;;;-146.00;100.00
21102;BME280;10709;49.006;12.100;2023-02-19T01:36:16;48842.03;;;-146.00;100.00
21102;BME280;10709;49.006;12.100;2023-02-19T01:38:43;48840.06;;;-146.00;100.00
21102;BME280;10709;49.006;12.100;2023-02-19T01:41:15;48844.00;;;-146.00;100.00
21102;BME280;10709;49.006;12.100;2023-02-19T01:46:35;48844.00;;;-146.00;100.00
21102;BME280;10709;49.006;12.100;2023-02-19T01:49:15;48845.94;;;-146.00;100.00
21102;BME280;10709;49.006;12.100;2023-02-19T01:51:45;48842.03;;;-146.00;100.00
21102;BME280;10709;49.006;12.100;2023-02-19T01:54:16;48842.03;;;-146.00;100.00
21102;BME280;10709;49.006;12.100;2023-02-19T01:56:44;48840.06;;;-146.00;100.00
21102;BME280;10709;49.006;12.100;2023-02-19T01:59:12;48842.03;;;-146.00;100.00
21102;BME280;10709;49.006;12.100;2023-02-19T02:01:40;48842.03;;;-146.00;100.00
21102;BME280;10709;49.006;12.100;2023-02-19T02:04:07;48840.06;;;-146.00;100.00
21102;BME280;10709;49.006;12.100;2023-02-19T02:06:47;48842.03;;;-146.00;100.00
21102;BME280;10709;49.006;12.100;2023-02-19T02:09:15;48842.03;;;-146.00;100.00
21102;BME280;10709;49.006;12.100;2023-02-19T02:12:02;48842.03;;;-146.00;100.00
21102;BME280;10709;49.006;12.100;2023-02-19T02:14:33;48836.16;;;-146.00;100.00
21102;BME280;10709;49.006;12.100;2023-02-19T02:22:31;48840.06;;;-146.00;100.00
21102;BME280;10709;49.006;12.100;2023-02-19T02:28:20;48842.03;;;-146.00;100.00
21102;BME280;10709;49.006;12.100;2023-02-19T02:30:58;48844.00;;;-146.00;100.00
21102;BME280;10709;49.006;12.100;2023-02-19T02:33:40;48844.00;;;-146.00;100.00
21102;BME280;10709;49.006;12.100;2023-02-19T02:36:15;48840.06;;;-146.00;100.00
21102;BME280;10709;49.006;12.100;2023-02-19T02:38:45;48844.00;;;-146.00;100.00
21102;BME280;10709;49.006;12.100;2023-02-19T02:41:13;48845.94;;;-146.00;100.00
21102;BME280;10709;49.006;12.100;2023-02-19T02:43:41;48844.00;;;-146.00;100.00
21102;BME280;10709;49.006;12.100;2023-02-19T02:46:12;48844.00;;;-146.00;100.00
21102;BME280;10709;49.006;12.100;2023-02-19T02:48:44;48840.06;;;-146.00;100.00
21102;BME280;10709;49.006;12.100;2023-02-19T02:51:15;48844.00;;;-146.00;100.00
21102;BME280;10709;49.006;12.100;2023-02-19T02:53:58;48840.06;;;-146.00;100.00
21102;BME280;10709;49.006;12.100;2023-02-19T02:56:46;48842.03;;;-146.00;100.00
21102;BME280;10709;49.006;12.100;2023-02-19T02:59:17;48840.06;;;-146.00;100.00
21102;BME280;10709;49.006;12.100;2023-02-19T03:01:49;48842.03;;;-146.00;100.00
21102;BME280;10709;49.006;12.100;2023-02-19T03:10:18;48840.06;;;-146.00;100.00
21102;BME280;10709;49.006;12.100;2023-02-19T03:12:50;48840.06;;;-146.00;100.00
21102;BME280;10709;49.006;12.100;2023-02-19T03:15:47;48840.06;;;-146.00;100.00
21102;BME280;10709;49.006;12.100;2023-02-19T03:18:48;48840.06;;;-146.00;100.00
21102;BME280;10709;49.006;12.100;2023-02-19T03:21:37;48834.19;;;-146.00;100.00
21102;BME280;10709;49.006;12.100;2023-02-19T03:24:07;48844.00;;;-146.00;100.00
21102;BME280;10709;49.006;12.100;2023-02-19T03:26:54;48844.00;;;-146.00;100.00
21102;BME280;10709;49.006;12.100;2023-02-19T03:29:23;48840.06;;;-146.00;100.00
21102;BME280;10709;49.006;12.100;2023-02-19T03:31:55;48836.16;;;-146.00;100.00
21102;BME280;10709;49.006;12.100;2023-02-19T03:34:27;48836.16;;;-146.00;100.00
21102;BME280;10709;49.006;12.100;2023-02-19T03:37:02;48840.06;;;-146.00;100.00
21102;BME280;10709;49.006;12.100;2023-02-19T03:39:32;48836.16;;;-146.00;100.00
21102;BME280;10709;49.006;12.100;2023-02-19T03:42:02;48840.06;;;-146.00;100.00
21102;BME280;10709;49.006;12.100;2023-02-19T03:44:37;48842.03;;;-146.00;100.00
21102;BME280;10709;49.006;12.100;2023-02-19T03:47:16;48840.06;;;-146.00;100.00
21102;BME280;10709;49.006;12.100;2023-02-19T03:55:25;48834.19;;;-146.00;100.00
21102;BME280;10709;49.006;12.100;2023-02-19T03:59:08;48840.06;;;-146.00;100.00
21102;BME280;10709;49.006;12.100;2023-02-19T04:01:16;48840.06;;;-146.00;100.00
21102;BME280;10709;49.006;12.100;2023-02-19T04:06:24;48840.06;;;-146.00;100.00
21102;BME280;10709;49.006;12.100;2023-02-19T04:08:54;48840.06;;;-146.00;100.00
21102;BME280;10709;49.006;12.100;2023-02-19T04:11:23;48836.16;;;-146.00;100.00
21102;BME280;10709;49.006;12.100;2023-02-19T04:13:57;48838.09;;;-146.00;100.00
21102;BME280;10709;49.006;12.100;2023-02-19T04:16:27;48840.06;;;-146.00;100.00
21102;BME280;10709;49.006;12.100;2023-02-19T04:19:08;48838.09;;;-146.00;100.00
21102;BME280;10709;49.006;12.100;2023-02-19T04:21:37;48840.06;;;-146.00;100.00
21102;BME280;10709;49.006;12.100;2023-02-19T04:24:09;48840.06;;;-146.00;100.00
21102;BME280;10709;49.006;12.100;2023-02-19T04:26:37;48840.06;;;-146.00;100.00
21102;BME280;10709;49.006;12.100;2023-02-19T04:29:05;48836.16;;;-146.00;100.00
21102;BME280;10709;49.006;12.100;2023-02-19T04:31:32;48836.16;;;-146.00;100.00
21102;BME280;10709;49.006;12.100;2023-02-19T04:34:01;48838.09;;;-146.00;100.00
21102;BME280;10709;49.006;12.100;2023-02-19T04:36:30;48834.19;;;-146.00;100.00
21102;BME280;10709;49.006;12.100;2023-02-19T04:38:57;48836.16;;;-146.00;100.00
21102;BME280;10709;49.006;12.100;2023-02-19T04:41:23;48836.16;;;-146.00;100.00
21102;BME280;10709;49.006;12.100;2023-02-19T04:43:50;48842.03;;;-146.00;100.00
21102;BME280;10709;49.006;12.100;2023-02-19T04:46:16;48836.16;;;-146.00;100.00
21102;BME280;10709;49.006;12.100;2023-02-19T04:48:43;48838.09;;;-146.00;100.00
21102;BME280;10709;49.006;12.100;2023-02-19T04:51:10;48840.06;;;-146.00;100.00
21102;BME280;10709;49.006;12.100;2023-02-19T04:53:37;48838.09;;;-146.00;100.00
21102;BME280;10709;49.006;12.100;2023-02-19T04:56:08;48844.00;;;-146.00;100.00
21102;BME280;10709;49.006;12.100;2023-02-19T04:58:35;48840.06;;;-146.00;100.00
21102;BME280;10709;49.006;12.100;2023-02-19T05:01:01;48836.16;;;-146.00;100.00
21102;BME280;10709;49.006;12.100;2023-02-19T05:03:29;48838.09;;;-146.00;100.00
21102;BME280;10709;49.006;12.100;2023-02-19T05:05:56;48840.06;;;-146.00;100.00
21102;BME280;10709;49.006;12.100;2023-02-19T05:08:23;48840.06;;;-146.00;100.00
21102;BME280;10709;49.006;12.100;2023-02-19T05:10:49;48844.00;;;-146.00;100.00
21102;BME280;10709;49.006;12.100;2023-02-19T05:13:15;48842.03;;;-146.00;100.00
21102;BME280;10709;49.006;12.100;2023-02-19T05:16:25;48844.00;;;-146.00;100.00
21102;BME280;10709;49.006;12.100;2023-02-19T05:18:45;48840.06;;;-146.00;100.00
21102;BME280;10709;49.006;12.100;2023-02-19T05:21:13;48844.00;;;-146.00;100.00
21102;BME280;10709;49.006;12.100;2023-02-19T05:23:40;48838.09;;;-146.00;100.00
21102;BME280;10709;49.006;12.100;2023-02-19T05:26:10;48836.16;;;-146.00;100.00
21102;BME280;10709;49.006;12.100;2023-02-19T05:28:37;48836.16;;;-146.00;100.00
21102;BME280;10709;49.006;12.100;2023-02-19T05:31:06;48840.06;;;-146.00;100.00
21102;BME280;10709;49.006;12.100;2023-02-19T05:33:34;48844.00;;;-146.00;100.00
21102;BME280;10709;49.006;12.100;2023-02-19T05:36:05;48836.16;;;-146.00;100.00
21102;BME280;10709;49.006;12.100;2023-02-19T05:38:32;48840.06;;;-146.00;100.00
21102;BME280;10709;49.006;12.100;2023-02-19T05:41:17;48840.06;;;-146.00;100.00
21102;BME280;10709;49.006;12.100;2023-02-19T05:43:45;48840.06;;;-146.00;100.00
21102;BME280;10709;49.006;12.100;2023-02-19T05:46:14;48838.09;;;-146.00;100.00
21102;BME280;10709;49.006;12.100;2023-02-19T05:48:41;48840.06;;;-146.00;100.00
21102;BME280;10709;49.006;12.100;2023-02-19T05:51:16;48838.09;;;-146.00;100.00
21102;BME280;10709;49.006;12.100;2023-02-19T05:53:43;48836.16;;;-146.00;100.00
21102;BME280;10709;49.006;12.100;2023-02-19T05:56:37;48840.06;;;-146.00;100.00
21102;BME280;10709;49.006;12.100;2023-02-19T06:01:40;48844.00;;;-146.00;100.00
21102;BME280;10709;49.006;12.100;2023-02-19T06:04:09;48840.06;;;-146.00;100.00
21102;BME280;10709;49.006;12.100;2023-02-19T06:06:36;48842.03;;;-146.00;100.00
21102;BME280;10709;49.006;12.100;2023-02-19T06:09:04;48844.00;;;-146.00;100.00
21102;BME280;10709;49.006;12.100;2023-02-19T06:11:31;48840.06;;;-146.00;100.00
21102;BME280;10709;49.006;12.100;2023-02-19T06:13:58;48840.06;;;-146.00;100.00
21102;BME280;10709;49.006;12.100;2023-02-19T06:16:25;48844.00;;;-146.00;100.00
21102;BME280;10709;49.006;12.100;2023-02-19T06:18:51;48842.03;;;-146.00;100.00
21102;BME280;10709;49.006;12.100;2023-02-19T06:21:19;48842.03;;;-146.00;100.00
21102;BME280;10709;49.006;12.100;2023-02-19T06:23:45;48847.91;;;-146.00;100.00
21102;BME280;10709;49.006;12.100;2023-02-19T06:26:20;48847.91;;;-146.00;100.00
21102;BME280;10709;49.006;12.100;2023-02-19T06:28:48;48844.00;;;-146.00;100.00
21102;BME280;10709;49.006;12.100;2023-02-19T06:31:16;48847.91;;;-146.00;100.00
21102;BME280;10709;49.006;12.100;2023-02-19T06:33:44;48847.91;;;-146.00;100.00
21102;BME280;10709;49.006;12.100;2023-02-19T06:36:16;48845.94;;;-146.00;100.00
21102;BME280;10709;49.006;12.100;2023-02-19T06:38:43;48847.91;;;-146.00;100.00
21102;BME280;10709;49.006;12.100;2023-02-19T06:41:10;48849.88;;;-146.00;100.00
21102;BME280;10709;49.006;12.100;2023-02-19T06:43:38;48847.91;;;-146.00;100.00
21102;BME280;10709;49.006;12.100;2023-02-19T06:46:05;48847.91;;;-146.00;100.00
21102;BME280;10709;49.006;12.100;2023-02-19T06:48:33;48849.88;;;-146.00;100.00
21102;BME280;10709;49.006;12.100;2023-02-19T06:51:00;48855.75;;;-146.00;100.00
21102;BME280;10709;49.006;12.100;2023-02-19T06:53:26;48861.63;;;-146.00;100.00
21102;BME280;10709;49.006;12.100;2023-02-19T06:56:18;48863.56;;;-146.00;100.00
21102;BME280;10709;49.006;12.100;2023-02-19T06:58:45;48867.50;;;-146.00;100.00
21102;BME280;10709;49.006;12.100;2023-02-19T07:01:12;48873.38;;;-146.00;100.00
21102;BME280;10709;49.006;12.100;2023-02-19T07:03:39;48871.41;;;-146.00;100.00
21102;BME280;10709;49.006;12.100;2023-02-19T07:06:05;48887.09;;;-146.00;100.00
21102;BME280;10709;49.006;12.100;2023-02-19T07:08:32;48883.16;;;-146.00;100.00
21102;BME280;10709;49.006;12.100;2023-02-19T07:10:58;48879.25;;;-146.00;100.00
21102;BME280;10709;49.006;12.100;2023-02-19T07:13:25;48883.16;;;-146.00;100.00
21102;BME280;10709;49.006;12.100;2023-02-19T07:15:59;48871.41;;;-146.00;100.00
21102;BME280;10709;49.006;12.100;2023-02-19T07:18:26;48875.34;;;-146.00;100.00
21102;BME280;10709;49.006;12.100;2023-02-19T07:20:53;48887.09;;;-146.00;100.00
21102;BME280;10709;49.006;12.100;2023-02-19T07:23:20;48892.97;;;-146.00;100.00
21102;BME280;10709;49.006;12.100;2023-02-19T07:25:47;48867.50;;;-146.00;100.00
21102;BME280;10709;49.006;12.100;2023-02-19T07:28:13;48871.41;;;-146.00;100.00
21102;BME280;10709;49.006;12.100;2023-02-19T07:30:39;48889.03;;;-146.00;100.00
21102;BME280;10709;49.006;12.100;2023-02-19T07:33:06;48906.69;;;-146.00;100.00
21102;BME280;10709;49.006;12.100;2023-02-19T07:35:35;48916.47;;;-146.00;100.00
21102;BME280;10709;49.006;12.100;2023-02-19T07:38:02;48902.75;;;-146.00;100.00
21102;BME280;10709;49.006;12.100;2023-02-19T07:40:28;48894.91;;;-146.00;100.00
21102;BME280;10709;49.006;12.100;2023-02-19T07:42:58;48894.91;;;-146.00;100.00
21102;BME280;10709;49.006;12.100;2023-02-19T07:45:24;48904.72;;;-146.00;100.00
21102;BME280;10709;49.006;12.100;2023-02-19T07:47:50;48902.75;;;-146.00;100.00
21102;BME280;10709;49.006;12.100;2023-02-19T07:50:17;48918.44;;;-146.00;100.00
21102;BME280;10709;49.006;12.100;2023-02-19T07:52:43;48914.50;;;-146.00;100.00
21102;BME280;10709;49.006;12.100;2023-02-19T07:55:10;48912.56;;;-146.00;100.00
21102;BME280;10709;49.006;12.100;2023-02-19T07:57:36;48910.59;;;-146.00;100.00
21102;BME280;10709;49.006;12.100;2023-02-19T08:00:03;48914.50;;;-146.00;100.00
21102;BME280;10709;49.006;12.100;2023-02-19T08:02:30;48918.44;;;-146.00;100.00
21102;BME280;10709;49.006;12.100;2023-02-19T08:05:15;48918.44;;;-146.00;100.00
21102;BME280;10709;49.006;12.100;2023-02-19T08:07:41;48922.34;;;-146.00;100.00
21102;BME280;10709;49.006;12.100;2023-02-19T08:10:08;48914.50;;;-146.00;100.00
21102;BME280;10709;49.006;12.100;2023-02-19T08:12:58;48930.19;;;-146.00;100.00
21102;BME280;10709;49.006;12.100;2023-02-19T08:15:55;48928.22;;;-146.00;100.00
21102;BME280;10709;49.006;12.100;2023-02-19T08:18:40;48930.19;;;-146.00;100.00
21102;BME280;10709;49.006;12.100;2023-02-19T08:21:06;48934.09;;;-146.00;100.00
21102;BME280;10709;49.006;12.100;2023-02-19T08:23:32;48939.97;;;-146.00;100.00
21102;BME280;10709;49.006;12.100;2023-02-19T08:26:00;48938.03;;;-146.00;100.00
21102;BME280;10709;49.006;12.100;2023-02-19T08:28:28;48941.94;;;-146.00;100.00
21102;BME280;10709;49.006;12.100;2023-02-19T08:31:01;48943.91;;;-146.00;100.00
21102;BME280;10709;49.006;12.100;2023-02-19T08:33:28;48953.69;;;-146.00;100.00
21102;BME280;10709;49.006;12.100;2023-02-19T08:35:56;48957.59;;;-146.00;100.00
21102;BME280;10709;49.006;12.100;2023-02-19T08:38:22;48965.44;;;-146.00;100.00
21102;BME280;10709;49.006;12.100;2023-02-19T08:40:49;48965.44;;;-146.00;100.00
21102;BME280;10709;49.006;12.100;2023-02-19T08:43:16;48955.66;;;-146.00;100.00
21102;BME280;10709;49.006;12.100;2023-02-19T08:45:44;48959.56;;;-146.00;100.00
21102;BME280;10709;49.006;12.100;2023-02-19T08:48:13;48965.44;;;-146.00;100.00
21102;BME280;10709;49.006;12.100;2023-02-19T08:50:39;48977.19;;;-146.00;100.00
21102;BME280;10709;49.006;12.100;2023-02-19T08:53:06;48992.88;;;-146.00;100.00
21102;BME280;10709;49.006;12.100;2023-02-19T08:55:33;48983.06;;;-146.00;100.00
21102;BME280;10709;49.006;12.100;2023-02-19T08:57:59;48985.03;;;-146.00;100.00
21102;BME280;10709;49.006;12.100;2023-02-19T09:00:26;48996.78;;;-146.00;100.00
21102;BME280;10709;49.006;12.100;2023-02-19T09:02:53;48985.03;;;-146.00;100.00
21102;BME280;10709;49.006;12.100;2023-02-19T09:05:19;48985.03;;;-146.00;100.00
21102;BME280;10709;49.006;12.100;2023-02-19T09:07:46;48990.91;;;-146.00;100.00
21102;BME280;10709;49.006;12.100;2023-02-19T09:10:13;48990.91;;;-146.00;100.00
21102;BME280;10709;49.006;12.100;2023-02-19T09:12:39;48992.88;;;-146.00;100.00
21102;BME280;10709;49.006;12.100;2023-02-19T09:15:07;48992.88;;;-146.00;100.00
21102;BME280;10709;49.006;12.100;2023-02-19T09:17:34;49008.53;;;-146.00;100.00
21102;BME280;10709;49.006;12.100;2023-02-19T09:20:00;49004.63;;;-146.00;100.00
21102;BME280;10709;49.006;12.100;2023-02-19T09:22:27;49008.53;;;-146.00;100.00
21102;BME280;10709;49.006;12.100;2023-02-19T09:24:53;49014.41;;;-146.00;100.00
21102;BME280;10709;49.006;12.100;2023-02-19T09:27:20;49014.41;;;-146.00;100.00
21102;BME280;10709;49.006;12.100;2023-02-19T09:29:47;49024.22;;;-146.00;100.00
21102;BME280;10709;49.006;12.100;2023-02-19T09:32:13;49008.53;;;-146.00;100.00
21102;BME280;10709;49.006;12.100;2023-02-19T09:34:41;49024.22;;;-146.00;100.00
21102;BME280;10709;49.006;12.100;2023-02-19T09:37:07;49028.13;;;-146.00;100.00
21102;BME280;10709;49.006;12.100;2023-02-19T09:39:34;49032.06;;;-146.00;100.00
21102;BME280;10709;49.006;12.100;2023-02-19T09:42:24;49039.88;;;-146.00;100.00
21102;BME280;10709;49.006;12.100;2023-02-19T09:44:54;49035.97;;;-146.00;100.00
21102;BME280;10709;49.006;12.100;2023-02-19T09:47:29;49051.66;;;-146.00;100.00
21102;BME280;10709;49.006;12.100;2023-02-19T09:50:05;49049.69;;;-146.00;100.00
21102;BME280;10709;49.006;12.100;2023-02-19T09:52:49;49037.94;;;-146.00;100.00
21102;BME280;10709;49.006;12.100;2023-02-19T09:57:59;49053.59;;;-146.00;100.00
21102;BME280;10709;49.006;12.100;2023-02-19T10:00:33;49049.69;;;-146.00;100.00
21102;BME280;10709;49.006;12.100;2023-02-19T10:03:08;49047.72;;;-146.00;100.00
21102;BME280;10709;49.006;12.100;2023-02-19T10:05:37;49051.66;;;-146.00;100.00
21102;BME280;10709;49.006;12.100;2023-02-19T10:08:08;49057.53;;;-146.00;100.00
21102;BME280;10709;49.006;12.100;2023-02-19T10:10:39;49057.53;;;-146.00;100.00
21102;BME280;10709;49.006;12.100;2023-02-19T10:13:28;49073.19;;;-146.00;100.00
21102;BME280;10709;49.006;12.100;2023-02-19T10:15:58;49083.00;;;-146.00;99.85
21102;BME280;10709;49.006;12.100;2023-02-19T10:18:30;49079.06;;;-146.00;97.83
21102;BME280;10709;49.006;12.100;2023-02-19T10:21:00;49096.72;;;-146.00;97.28
21102;BME280;10709;49.006;12.100;2023-02-19T10:23:27;49090.81;;;-146.00;98.66
21102;BME280;10709;49.006;12.100;2023-02-19T10:25:56;49090.81;;;-146.00;97.04
21102;BME280;10709;49.006;12.100;2023-02-19T10:28:27;49092.78;;;-146.00;96.69
21102;BME280;10709;49.006;12.100;2023-02-19T10:30:56;49122.19;;;-146.00;96.03
21102;BME280;10709;49.006;12.100;2023-02-19T10:33:24;49077.13;;;-146.00;97.73
21102;BME280;10709;49.006;12.100;2023-02-19T10:35:57;49094.75;;;-146.00;96.46
21102;BME280;10709;49.006;12.100;2023-02-19T10:38:36;49094.75;;;-146.00;94.84
21102;BME280;10709;49.006;12.100;2023-02-19T10:41:15;49106.50;;;-146.00;93.91
21102;BME280;10709;49.006;12.100;2023-02-19T10:43:51;49092.78;;;-146.00;94.93
21102;BME280;10709;49.006;12.100;2023-02-19T10:46:21;49086.91;;;-146.00;94.07
21102;BME280;10709;49.006;12.100;2023-02-19T10:49:36;49116.28;;;-146.00;95.28
21102;BME280;10709;49.006;12.100;2023-02-19T10:51:42;49110.41;;;-146.00;95.40
21102;BME280;10709;49.006;12.100;2023-02-19T10:54:18;49084.94;;;-146.00;95.75
21102;BME280;10709;49.006;12.100;2023-02-19T10:56:45;49112.38;;;-146.00;96.67
21102;BME280;10709;49.006;12.100;2023-02-19T10:59:26;49130.00;;;-146.00;95.00
21102;BME280;10709;49.006;12.100;2023-02-19T11:01:53;49110.41;;;-146.00;96.05
21102;BME280;10709;49.006;12.100;2023-02-19T11:04:21;49102.59;;;-146.00;98.70
21102;BME280;10709;49.006;12.100;2023-02-19T11:06:47;49083.00;;;-146.00;99.58
21102;BME280;10709;49.006;12.100;2023-02-19T11:09:27;49083.00;;;-146.00;100.00
21102;BME280;10709;49.006;12.100;2023-02-19T11:11:55;49090.81;;;-146.00;98.42
21102;BME280;10709;49.006;12.100;2023-02-19T11:14:24;49090.81;;;-146.00;97.72
21102;BME280;10709;49.006;12.100;2023-02-19T11:16:55;49086.91;;;-146.00;96.16
21102;BME280;10709;49.006;12.100;2023-02-19T11:21:53;49120.22;;;-146.00;94.43
21102;BME280;10709;49.006;12.100;2023-02-19T11:24:33;49130.00;;;-146.00;93.73
21102;BME280;10709;49.006;12.100;2023-02-19T11:27:04;49122.19;;;-146.00;92.22
21102;BME280;10709;49.006;12.100;2023-02-19T11:29:32;49133.94;;;-146.00;92.44
21102;BME280;10709;49.006;12.100;2023-02-19T11:34:46;49133.94;;;-146.00;91.54
21102;BME280;10709;49.006;12.100;2023-02-19T11:37:16;49137.84;;;-146.00;90.76
21102;BME280;10709;49.006;12.100;2023-02-19T11:39:48;49128.06;;;-146.00;91.00
21102;BME280;10709;49.006;12.100;2023-02-19T11:45:23;49149.59;;;-146.00;89.62
21102;BME280;10709;49.006;12.100;2023-02-19T11:50:51;49131.97;;;-146.00;89.36
21102;BME280;10709;49.006;12.100;2023-02-19T11:56:09;49116.28;;;-146.00;87.96
21102;BME280;10709;49.006;12.100;2023-02-19T12:10:04;49133.94;;;-146.00;86.19
21102;BME280;10709;49.006;12.100;2023-02-19T12:21:21;49102.59;;;-146.00;84.00
21102;BME280;10709;49.006;12.100;2023-02-19T12:32:27;49157.44;;;-146.00;87.20
21102;BME280;10709;49.006;12.100;2023-02-19T12:43:21;49114.34;;;-146.00;83.90
21102;BME280;10709;49.006;12.100;2023-02-19T12:48:32;49086.91;;;-146.00;82.60
21102;BME280;10709;49.006;12.100;2023-02-19T12:51:09;49083.00;;;-146.00;83.99
21102;BME280;10709;49.006;12.100;2023-02-19T12:53:46;49090.81;;;-146.00;83.86
21102;BME280;10709;49.006;12.100;2023-02-19T12:56:18;49094.75;;;-146.00;85.26
21102;BME280;10709;49.006;12.100;2023-02-19T12:59:10;49133.94;;;-146.00;88.33
21102;BME280;10709;49.006;12.100;2023-02-19T13:01:47;49169.19;;;-146.00;91.22
21102;BME280;10709;49.006;12.100;2023-02-19T13:07:09;49153.53;;;-146.00;93.17
21102;BME280;10709;49.006;12.100;2023-02-19T13:09:47;49137.84;;;-146.00;93.99
21102;BME280;10709;49.006;12.100;2023-02-19T13:12:23;49135.88;;;-146.00;94.90
21102;BME280;10709;49.006;12.100;2023-02-19T13:14:56;49145.69;;;-146.00;94.66
21102;BME280;10709;49.006;12.100;2023-02-19T13:17:52;49135.88;;;-146.00;95.42
21102;BME280;10709;49.006;12.100;2023-02-19T13:20:38;49139.81;;;-146.00;94.29
21102;BME280;10709;49.006;12.100;2023-02-19T13:23:30;49163.31;;;-146.00;94.36
21102;BME280;10709;49.006;12.100;2023-02-19T13:37:07;49110.41;;;-146.00;89.97
21102;BME280;10709;49.006;12.100;2023-02-19T13:39:34;49145.69;;;-146.00;89.42
21102;BME280;10709;49.006;12.100;2023-02-19T13:42:01;49147.66;;;-146.00;86.56
21102;BME280;10709;49.006;12.100;2023-02-19T13:44:30;49149.59;;;-146.00;86.91
21102;BME280;10709;49.006;12.100;2023-02-19T13:46:58;49161.34;;;-146.00;86.06
21102;BME280;10709;49.006;12.100;2023-02-19T13:52:00;49122.19;;;-146.00;85.60
21102;BME280;10709;49.006;12.100;2023-02-19T13:54:34;49104.53;;;-146.00;83.30
21102;BME280;10709;49.006;12.100;2023-02-19T13:59:48;49098.66;;;-146.00;82.10
21102;BME280;10709;49.006;12.100;2023-02-19T14:02:32;49051.66;;;-146.00;80.81
21102;BME280;10709;49.006;12.100;2023-02-19T14:05:07;49063.41;;;-146.00;80.82
21102;BME280;10709;49.006;12.100;2023-02-19T14:07:49;49012.47;;;-146.00;80.66
21102;BME280;10709;49.006;12.100;2023-02-19T14:13:11;49006.59;;;-146.00;79.26
21102;BME280;10709;49.006;12.100;2023-02-19T14:15:48;49028.13;;;-146.00;79.56
21102;BME280;10709;49.006;12.100;2023-02-19T14:18:41;49035.97;;;-146.00;78.66
21102;BME280;10709;49.006;12.100;2023-02-19T14:21:17;49041.84;;;-146.00;80.04
21102;BME280;10709;49.006;12.100;2023-02-19T14:24:11;49008.53;;;-146.00;79.10
21102;BME280;10709;49.006;12.100;2023-02-19T14:26:40;49014.41;;;-146.00;79.49
21102;BME280;10709;49.006;12.100;2023-02-19T14:29:08;48992.88;;;-146.00;78.96
21102;BME280;10709;49.006;12.100;2023-02-19T14:31:38;48990.91;;;-146.00;78.57
21102;BME280;10709;49.006;12.100;2023-02-19T14:34:16;49004.63;;;-146.00;78.16
21102;BME280;10709;49.006;12.100;2023-02-19T14:36:51;48977.19;;;-146.00;79.02